ADDS METAR Data INFO
IDs: Format: Raw Decoded Include TAF

Data at: 2010 UTC 19 Oct 2017

KBNO 191953Z AUTO 18021G30KT 10SM CLR 18/M02 A2978 RMK AO2 PK WND 18030/1948 SLP074 T01831022 TSNO
KBNO 191853Z AUTO 17015G20KT 10SM CLR 18/M03 A2981 RMK AO2 SLP088 T01781033 TSNO
KBNO 191753Z AUTO 14011G16KT 10SM CLR 16/M02 A2983 RMK AO2 SLP096 T01561022 10156 21050 58010 TSNO
KBNO 191653Z AUTO 03003KT 10SM CLR 10/M04 A2985 RMK AO2 SLP111 T01001039 TSNO
KBNO 191553Z AUTO 00000KT 10SM CLR 03/M02 A2986 RMK AO2 SLP121 T00281022 TSNO
KBNO 191453Z AUTO 00000KT 10SM CLR M02/M04 A2986 RMK AO2 SLP121 T10171044 57002 TSNO
KBNO 191353Z AUTO VRB03KT 10SM CLR M04/M06 A2986 RMK AO2 SLP117 T10441061 TSNO
KBNO 191253Z AUTO 00000KT 10SM CLR M05/M07 A2987 RMK AO2 SLP119 T10501067 TSNO
KBNO 191153Z AUTO 12003KT 10SM CLR M04/M06 A2987 RMK AO2 SLP106 T10391061 10000 21050 56012 TSNO
KBNO 191053Z AUTO 05005KT 10SM CLR M01/M05 A2987 RMK AO2 SLP104 T10061050 TSNO
KBNO 190953Z AUTO VRB03KT 10SM CLR M05/M07 A2989 RMK AO2 SLP117 T10501067 TSNO
KBNO 190853Z AUTO 31004KT 10SM CLR M04/M06 A2991 RMK AO2 SLP123 T10391061 56006 TSNO
KBNO 190753Z AUTO 26004KT 10SM CLR 00/M04 A2991 RMK AO2 SLP120 T00001044 402331050 TSNO
KBNO 190653Z AUTO 00000KT 10SM CLR M02/M06 A2991 RMK AO2 SLP128 T10171056 TSNO
KBNO 190553Z AUTO 28003KT 10SM CLR 00/M05 A2993 RMK AO2 SLP134 T00001050 10211 20000 55004 TSNO
KBNO 190453Z AUTO 00000KT 10SM CLR 01/M04 A2992 RMK AO2 SLP138 T00061039 TSNO
KBNO 190353Z AUTO 35003KT 10SM CLR 04/M04 A2993 RMK AO2 SLP140 T00391039 TSNO
KBNO 190253Z AUTO 28003KT 10SM CLR 07/M03 A2994 RMK AO2 SLP147 T00671033 56006 TSNO
KBNO 190153Z AUTO 19005KT 10SM CLR 12/M04 A2994 RMK AO2 SLP146 T01171039 TSNO
KBNO 190053Z AUTO 22007KT 10SM CLR 15/M04 A2995 RMK AO2 SLP144 T01501039 TSNO
KBNO 182353Z AUTO 21008KT 10SM CLR 21/M04 A2996 RMK AO2 SLP141 T02111044 10233 20128 56021 TSNO
KBNO 182253Z AUTO 19010KT 10SM CLR 22/M06 A2998 RMK AO2 SLP145 T02171061 TSNO
KBNO 182153Z AUTO VRB04KT 10SM CLR 22/M03 A2999 RMK AO2 SLP150 T02171028 TSNO
KBNO 182053Z AUTO 00000KT 10SM CLR 19/M01 A3003 RMK AO2 SLP164 T01941011 58027 TSNO
KBNO 181953Z AUTO VRB03KT 10SM CLR 17/M01 A3007 RMK AO2 SLP179 T01721011 TSNO
KBNO 181853Z AUTO 00000KT 10SM CLR 15/M01 A3010 RMK AO2 SLP187 T01501011 TSNO
KBNO 181753Z AUTO VRB03KT 10SM CLR 13/M01 A3012 RMK AO2 SLP198 T01281006 10133 21050 58003 TSNO
KBNO 181653Z AUTO 00000KT 10SM CLR 09/01 A3014 RMK AO2 SLP205 T00940006 TSNO
KBNO 181553Z AUTO 00000KT 10SM CLR 06/01 A3014 RMK AO2 SLP210 T00560006 TSNO
KBNO 181453Z AUTO 27004KT 10SM CLR M01/M02 A3013 RMK AO2 SLP212 T10061017 58000 TSNO
KBNO 181353Z AUTO 26006KT 10SM CLR M04/M04 A3014 RMK AO2 SLP214 T10391044 TSNO
KBNO 181253Z AUTO 27004KT 10SM CLR M04/M04 A3013 RMK AO2 SLP206 T10391044 TSNO
KBNO 181153Z AUTO 00000KT 10SM CLR M04/M05 A3013 RMK AO2 SLP203 T10441050 10056 21050 56011 TSNO
KBNO 181053Z AUTO 00000KT 10SM CLR M03/M04 A3015 RMK AO2 SLP206 T10331039 TSNO
KBNO 180953Z AUTO 36006KT 10SM CLR M03/M04 A3015 RMK AO2 SLP208 T10331044 TSNO
KBNO 180853Z AUTO 07004KT 10SM CLR M02/M04 A3017 RMK AO2 SLP212 T10221039 50000 TSNO